createdAt,value
2022-08-17T00:00:57.543Z,100.00
2022-08-17T00:02:01.555Z,100.00
2022-08-17T00:03:24.112Z,100.00
2022-08-17T00:04:26.325Z,100.00
2022-08-17T00:05:35.191Z,100.00
2022-08-17T00:06:37.434Z,100.00
2022-08-17T00:07:39.691Z,100.00
2022-08-17T00:08:45.401Z,100.00
2022-08-17T00:09:47.711Z,100.00
2022-08-17T00:10:51.040Z,100.00
2022-08-17T00:12:41.807Z,100.00
2022-08-17T00:13:21.377Z,100.00
2022-08-17T00:14:23.712Z,100.00
2022-08-17T00:15:26.387Z,100.00
2022-08-17T00:16:52.589Z,100.00
2022-08-17T00:17:57.196Z,100.00
2022-08-17T00:19:08.392Z,100.00
2022-08-17T00:20:12.077Z,100.00
2022-08-17T00:21:16.055Z,100.00
2022-08-17T00:22:34.493Z,100.00
2022-08-17T00:23:44.473Z,100.00
2022-08-17T00:24:51.558Z,100.00
2022-08-17T00:25:54.240Z,100.00
2022-08-17T00:26:56.437Z,100.00
2022-08-17T00:27:58.629Z,100.00
2022-08-17T00:29:02.919Z,100.00
2022-08-17T00:30:08.127Z,100.00
2022-08-17T00:31:11.762Z,100.00
2022-08-17T00:33:12.041Z,100.00
2022-08-17T00:33:38.184Z,100.00
2022-08-17T00:34:40.369Z,100.00
2022-08-17T00:35:43.147Z,100.00
2022-08-17T00:36:45.403Z,100.00
2022-08-17T00:37:47.578Z,100.00
2022-08-17T00:38:50.370Z,100.00
2022-08-17T00:39:52.663Z,100.00
2022-08-17T00:41:02.388Z,100.00
2022-08-17T00:42:15.985Z,100.00
2022-08-17T00:43:20.181Z,100.00
2022-08-17T00:44:22.589Z,100.00
2022-08-17T00:45:32.691Z,100.00
2022-08-17T00:46:39.279Z,100.00
2022-08-17T00:47:42.277Z,100.00
2022-08-17T00:48:45.261Z,100.00
2022-08-17T00:49:47.476Z,100.00
2022-08-17T00:51:07.102Z,100.00
2022-08-17T00:52:19.060Z,100.00
2022-08-17T00:53:22.243Z,100.00
2022-08-17T00:54:30.366Z,100.00
2022-08-17T00:55:32.957Z,100.00
2022-08-17T00:56:41.297Z,100.00
2022-08-17T00:57:46.860Z,100.00
2022-08-17T00:58:52.289Z,100.00
2022-08-17T01:00:02.015Z,100.00
2022-08-17T01:01:08.540Z,100.00
2022-08-17T01:02:14.107Z,100.00
2022-08-17T01:03:25.339Z,100.00
2022-08-17T01:04:29.358Z,100.00
2022-08-17T01:05:34.598Z,100.00
2022-08-17T01:06:37.447Z,100.00
2022-08-17T01:07:40.610Z,100.00
2022-08-17T01:08:43.114Z,100.00
2022-08-17T01:09:45.366Z,100.00
2022-08-17T01:10:58.587Z,100.00
2022-08-17T01:12:08.475Z,100.00
2022-08-17T01:13:12.322Z,100.00
2022-08-17T01:14:14.556Z,100.00
2022-08-17T01:15:16.906Z,100.00
2022-08-17T01:16:24.145Z,100.00
2022-08-17T01:17:28.977Z,100.00
2022-08-17T01:18:32.847Z,100.00
2022-08-17T01:19:39.264Z,100.00
2022-08-17T01:20:48.443Z,100.00
2022-08-17T01:21:58.204Z,100.00
2022-08-17T01:23:02.188Z,100.00
2022-08-17T01:24:04.656Z,100.00
2022-08-17T01:25:08.851Z,100.00
2022-08-17T01:26:11.027Z,100.00
2022-08-17T01:27:16.221Z,100.00
2022-08-17T01:28:33.607Z,100.00
2022-08-17T01:29:48.366Z,100.00
2022-08-17T01:30:58.275Z,100.00
2022-08-17T01:32:04.935Z,100.00
2022-08-17T01:33:11.350Z,100.00
2022-08-17T01:34:16.086Z,100.00
2022-08-17T01:35:18.622Z,100.00
2022-08-17T01:36:21.375Z,100.00
2022-08-17T01:37:34.409Z,100.00
2022-08-17T01:38:38.826Z,100.00
2022-08-17T01:39:57.642Z,100.00
2022-08-17T01:41:12.367Z,100.00
2022-08-17T01:42:30.731Z,100.00
2022-08-17T01:43:38.982Z,100.00
2022-08-17T01:44:41.561Z,100.00
2022-08-17T01:45:49.855Z,100.00
2022-08-17T01:47:06.160Z,100.00
2022-08-17T01:48:08.527Z,100.00
2022-08-17T01:49:12.793Z,100.00
2022-08-17T01:50:18.936Z,100.00
2022-08-17T01:51:21.261Z,100.00
2022-08-17T01:52:23.824Z,100.00
2022-08-17T01:53:34.971Z,100.00
2022-08-17T01:54:39.784Z,100.00
2022-08-17T01:56:00.083Z,100.00
2022-08-17T01:57:02.327Z,100.00
2022-08-17T01:58:08.902Z,100.00
2022-08-17T01:59:12.290Z,100.00
2022-08-17T02:00:16.026Z,100.00
2022-08-17T02:01:21.692Z,100.00
2022-08-17T02:02:30.370Z,100.00
2022-08-17T02:03:35.050Z,100.00
2022-08-17T02:04:37.272Z,100.00
2022-08-17T02:05:40.469Z,100.00
2022-08-17T02:06:52.930Z,100.00
2022-08-17T02:08:00.534Z,100.00
2022-08-17T02:09:04.361Z,100.00
2022-08-17T02:10:20.000Z,100.00
2022-08-17T02:11:22.717Z,100.00
2022-08-17T02:12:38.896Z,100.00
2022-08-17T02:13:43.123Z,100.00
2022-08-17T02:14:45.350Z,100.00
2022-08-17T02:15:47.574Z,100.00
2022-08-17T02:16:49.920Z,100.00
2022-08-17T02:17:54.868Z,100.00
2022-08-17T02:18:57.204Z,100.00
2022-08-17T02:19:59.397Z,100.00
2022-08-17T02:21:01.728Z,100.00
2022-08-17T02:22:04.047Z,100.00
2022-08-17T02:23:10.879Z,100.00
2022-08-17T02:24:17.842Z,100.00
2022-08-17T02:25:43.541Z,100.00
2022-08-17T02:26:47.260Z,100.00
2022-08-17T02:27:49.457Z,100.00
2022-08-17T02:28:51.639Z,100.00
2022-08-17T02:29:54.017Z,100.00
2022-08-17T02:31:00.646Z,100.00
2022-08-17T02:32:05.250Z,100.00
2022-08-17T02:33:09.415Z,100.00
2022-08-17T02:34:12.493Z,100.00
2022-08-17T02:35:14.802Z,100.00
2022-08-17T02:36:26.829Z,100.00
2022-08-17T02:37:30.963Z,100.00
2022-08-17T02:38:33.102Z,100.00
2022-08-17T02:39:35.304Z,100.00
2022-08-17T02:40:40.559Z,100.00
2022-08-17T02:41:43.715Z,100.00
2022-08-17T02:42:46.196Z,100.00
2022-08-17T02:43:48.409Z,100.00
2022-08-17T02:44:50.762Z,100.00
2022-08-17T02:45:54.081Z,100.00
2022-08-17T02:46:56.486Z,100.00
2022-08-17T02:47:58.725Z,100.00
2022-08-17T02:49:00.979Z,100.00
2022-08-17T02:50:05.017Z,100.00
2022-08-17T02:51:07.205Z,100.00
2022-08-17T02:52:09.433Z,100.00
2022-08-17T02:53:11.729Z,100.00
2022-08-17T02:54:41.291Z,100.00
2022-08-17T02:55:40.265Z,100.00
2022-08-17T02:56:42.868Z,100.00
2022-08-17T02:57:45.370Z,100.00
2022-08-17T02:58:47.566Z,100.00
2022-08-17T02:59:49.787Z,100.00
2022-08-17T03:00:51.979Z,100.00
2022-08-17T03:01:54.231Z,100.00
2022-08-17T03:02:57.810Z,100.00
2022-08-17T03:04:00.689Z,100.00
2022-08-17T03:05:02.995Z,100.00
2022-08-17T03:06:07.330Z,100.00
2022-08-17T03:07:09.702Z,100.00
2022-08-17T03:08:13.420Z,100.00
2022-08-17T03:09:16.799Z,100.00
2022-08-17T03:10:20.148Z,100.00
2022-08-17T03:11:22.358Z,100.00
2022-08-17T03:12:24.563Z,100.00
2022-08-17T03:13:27.514Z,100.00
2022-08-17T03:14:32.177Z,100.00
2022-08-17T03:15:34.974Z,100.00
2022-08-17T03:16:37.193Z,100.00
2022-08-17T03:17:42.004Z,100.00
2022-08-17T03:18:44.201Z,100.00
2022-08-17T03:19:46.368Z,100.00
2022-08-17T03:20:48.830Z,100.00
2022-08-17T03:21:55.209Z,100.00
2022-08-17T03:23:02.654Z,100.00
2022-08-17T03:24:08.967Z,100.00
2022-08-17T03:25:14.976Z,100.00
2022-08-17T03:26:21.775Z,100.00
2022-08-17T03:27:24.028Z,100.00
2022-08-17T03:28:28.200Z,100.00
2022-08-17T03:29:30.379Z,100.00
2022-08-17T03:30:33.254Z,100.00
2022-08-17T03:31:36.915Z,100.00
2022-08-17T03:32:42.632Z,100.00
2022-08-17T03:33:44.887Z,100.00
2022-08-17T03:34:47.179Z,100.00
2022-08-17T03:35:49.564Z,100.00
2022-08-17T03:36:51.759Z,100.00
2022-08-17T03:38:00.125Z,100.00
2022-08-17T03:39:03.823Z,100.00
2022-08-17T03:40:07.931Z,100.00
2022-08-17T03:41:10.197Z,100.00
2022-08-17T03:42:31.492Z,100.00
2022-08-17T03:43:34.879Z,100.00
2022-08-17T03:44:37.036Z,100.00
2022-08-17T03:45:58.848Z,100.00
2022-08-17T03:47:19.604Z,100.00
2022-08-17T03:48:40.855Z,100.00
2022-08-17T03:50:01.484Z,100.00
2022-08-17T03:51:22.394Z,100.00
2022-08-17T03:52:42.982Z,100.00
2022-08-17T03:54:11.836Z,100.00
2022-08-17T03:55:35.966Z,100.00
2022-08-17T03:56:45.034Z,100.00
2022-08-17T03:57:48.871Z,100.00
2022-08-17T03:58:51.067Z,100.00
2022-08-17T03:59:54.155Z,100.00
2022-08-17T04:00:56.454Z,100.00
2022-08-17T04:02:03.845Z,100.00
2022-08-17T04:03:06.562Z,100.00
2022-08-17T04:04:11.792Z,100.00
2022-08-17T04:05:15.215Z,100.00
2022-08-17T04:06:17.440Z,100.00
2022-08-17T04:07:21.840Z,100.00
2022-08-17T04:08:24.140Z,100.00
2022-08-17T04:09:26.471Z,100.00
2022-08-17T04:10:30.207Z,100.00
2022-08-17T04:12:58.422Z,100.00
2022-08-17T04:14:01.404Z,100.00
2022-08-17T04:15:03.858Z,100.00
2022-08-17T04:16:06.242Z,100.00
2022-08-17T04:17:08.616Z,100.00
2022-08-17T04:18:11.064Z,100.00
2022-08-17T04:19:13.373Z,100.00
2022-08-17T04:20:18.651Z,100.00
2022-08-17T04:21:21.405Z,100.00
2022-08-17T04:22:31.882Z,100.00
2022-08-17T04:23:37.833Z,100.00
2022-08-17T04:24:40.017Z,100.00
2022-08-17T04:25:45.682Z,100.00
2022-08-17T04:26:52.047Z,100.00
2022-08-17T04:27:56.917Z,100.00
2022-08-17T04:28:59.329Z,100.00
2022-08-17T04:30:02.697Z,100.00
2022-08-17T04:31:05.030Z,100.00
2022-08-17T04:32:08.981Z,100.00
2022-08-17T04:33:14.967Z,100.00
2022-08-17T04:34:19.700Z,100.00
2022-08-17T04:35:30.262Z,100.00
2022-08-17T04:36:34.839Z,100.00
2022-08-17T04:37:37.082Z,100.00
2022-08-17T04:38:42.236Z,100.00
2022-08-17T04:40:04.643Z,100.00
2022-08-17T04:41:27.062Z,100.00
2022-08-17T04:42:29.379Z,100.00
2022-08-17T04:43:32.989Z,100.00
2022-08-17T04:44:36.881Z,100.00
2022-08-17T04:45:55.295Z,100.00
2022-08-17T04:46:58.671Z,100.00
2022-08-17T04:48:01.184Z,100.00
2022-08-17T04:49:09.313Z,100.00
2022-08-17T04:50:11.602Z,100.00
2022-08-17T04:51:32.689Z,100.00
2022-08-17T04:52:45.522Z,100.00
2022-08-17T04:53:54.712Z,100.00
2022-08-17T04:54:57.301Z,100.00
2022-08-17T04:55:59.542Z,100.00
2022-08-17T04:57:01.772Z,100.00
2022-08-17T04:58:04.329Z,100.00
2022-08-17T04:59:10.009Z,100.00
2022-08-17T05:00:12.658Z,100.00
2022-08-17T05:01:16.314Z,100.00
2022-08-17T05:02:25.567Z,100.00
2022-08-17T05:03:28.123Z,100.00
2022-08-17T05:04:34.122Z,100.00
2022-08-17T05:05:43.310Z,100.00
2022-08-17T05:06:46.693Z,100.00
2022-08-17T05:07:54.418Z,100.00
2022-08-17T05:08:58.007Z,100.00
2022-08-17T05:10:00.346Z,100.00
2022-08-17T05:11:02.651Z,100.00
2022-08-17T05:12:05.983Z,100.00
2022-08-17T05:13:19.015Z,100.00
2022-08-17T05:14:21.847Z,100.00
2022-08-17T05:15:37.046Z,100.00
2022-08-17T05:16:49.350Z,100.00
2022-08-17T05:17:51.599Z,100.00
2022-08-17T05:18:54.162Z,100.00
2022-08-17T05:19:56.356Z,100.00
2022-08-17T05:20:58.701Z,100.00
2022-08-17T05:22:05.580Z,100.00
2022-08-17T05:23:11.580Z,100.00
2022-08-17T05:24:35.381Z,100.00
2022-08-17T05:25:43.174Z,100.00
2022-08-17T05:26:50.066Z,100.00
2022-08-17T05:27:55.221Z,100.00
2022-08-17T05:29:02.570Z,100.00
2022-08-17T05:30:05.639Z,100.00
2022-08-17T05:31:07.989Z,100.00
2022-08-17T05:32:38.921Z,100.00
2022-08-17T05:33:38.206Z,100.00
2022-08-17T05:34:42.663Z,100.00
2022-08-17T05:35:47.855Z,100.00
2022-08-17T05:36:50.017Z,100.00
2022-08-17T05:37:53.277Z,100.00
2022-08-17T05:38:58.885Z,100.00
2022-08-17T05:40:01.183Z,100.00
2022-08-17T05:41:05.967Z,100.00
2022-08-17T05:42:09.184Z,100.00
2022-08-17T05:43:16.117Z,100.00
2022-08-17T05:44:18.327Z,100.00
2022-08-17T05:45:46.089Z,100.00
2022-08-17T05:46:49.341Z,100.00
2022-08-17T05:47:51.785Z,100.00
2022-08-17T05:49:02.509Z,100.00
2022-08-17T05:50:09.517Z,100.00
2022-08-17T05:51:39.427Z,100.00
2022-08-17T05:52:53.735Z,100.00
2022-08-17T05:54:20.731Z,100.00
2022-08-17T05:56:04.178Z,100.00
2022-08-17T05:57:34.390Z,100.00
2022-08-17T05:58:48.495Z,100.00
2022-08-17T06:00:09.940Z,100.00
2022-08-17T06:01:27.237Z,100.00
2022-08-17T06:02:53.007Z,100.00
2022-08-17T06:04:16.659Z,100.00
2022-08-17T06:05:31.075Z,100.00
2022-08-17T06:06:40.291Z,100.00
2022-08-17T06:08:06.736Z,100.00
2022-08-17T06:09:33.867Z,100.00
2022-08-17T06:10:58.938Z,100.00
2022-08-17T06:12:25.821Z,100.00
2022-08-17T06:13:55.787Z,100.00
2022-08-17T06:15:24.949Z,100.00
2022-08-17T06:16:36.366Z,100.00
2022-08-17T06:17:39.144Z,100.00
2022-08-17T06:18:46.994Z,100.00
2022-08-17T06:19:52.800Z,100.00
2022-08-17T06:21:00.472Z,100.00
2022-08-17T06:22:05.771Z,100.00
2022-08-17T06:23:14.408Z,100.00
2022-08-17T06:24:35.277Z,100.00
2022-08-17T06:25:46.823Z,100.00
2022-08-17T06:26:50.251Z,100.00
2022-08-17T06:28:05.382Z,100.00
2022-08-17T06:29:28.464Z,100.00
2022-08-17T06:31:00.239Z,100.00
2022-08-17T06:32:00.091Z,100.00
2022-08-17T06:33:07.942Z,100.00
2022-08-17T06:34:12.593Z,100.00
2022-08-17T06:35:22.065Z,100.00
2022-08-17T06:36:37.905Z,100.00
2022-08-17T06:38:07.396Z,100.00
2022-08-17T06:39:36.990Z,100.00
2022-08-17T06:41:00.852Z,100.00
2022-08-17T06:43:02.776Z,100.00
2022-08-17T06:43:51.228Z,100.00
2022-08-17T06:45:15.314Z,100.00
2022-08-17T06:46:35.222Z,100.00
2022-08-17T06:47:47.470Z,97.25
2022-08-17T06:49:11.605Z,92.14
2022-08-17T06:50:36.005Z,92.55
2022-08-17T06:51:41.506Z,90.61
2022-08-17T06:53:09.722Z,87.22
2022-08-17T06:54:45.803Z,88.24
2022-08-17T06:56:10.536Z,90.52
2022-08-17T06:57:19.670Z,89.42
2022-08-17T06:58:29.558Z,92.85
2022-08-17T06:59:55.204Z,94.71
2022-08-17T07:01:08.380Z,92.84
2022-08-17T07:02:18.388Z,92.13
2022-08-17T07:03:37.745Z,89.83
2022-08-17T07:04:41.335Z,90.04
2022-08-17T07:05:54.897Z,87.93
2022-08-17T07:07:27.625Z,86.72
2022-08-17T07:08:51.156Z,84.04
2022-08-17T07:09:55.462Z,80.93
2022-08-17T07:11:02.591Z,82.53
2022-08-17T07:12:43.212Z,80.63
2022-08-17T07:13:57.449Z,77.54
2022-08-17T07:15:07.653Z,77.27
2022-08-17T07:16:33.817Z,73.16
2022-08-17T07:17:46.554Z,73.79
2022-08-17T07:18:53.120Z,72.73
2022-08-17T07:20:15.203Z,70.49
2022-08-17T07:21:29.209Z,69.13
2022-08-17T07:22:57.196Z,66.58
2022-08-17T07:24:30.871Z,65.20
2022-08-17T07:25:33.225Z,64.19
2022-08-17T07:26:35.519Z,65.28
2022-08-17T07:27:45.290Z,62.82
2022-08-17T07:28:47.962Z,62.46
2022-08-17T07:29:54.415Z,61.58
2022-08-17T07:30:56.616Z,61.35
2022-08-17T07:31:59.213Z,60.69
2022-08-17T07:33:12.551Z,63.03
2022-08-17T07:34:15.818Z,63.42
2022-08-17T07:35:37.534Z,63.50
2022-08-17T07:36:42.895Z,64.21
2022-08-17T07:37:55.639Z,65.11
2022-08-17T07:38:58.321Z,64.53
2022-08-17T07:40:20.945Z,65.58
2022-08-17T07:41:23.931Z,66.93
2022-08-17T07:42:26.201Z,65.75
2022-08-17T07:43:36.883Z,68.59
2022-08-17T07:44:49.420Z,65.73
2022-08-17T07:46:45.076Z,65.74
2022-08-17T07:48:10.547Z,67.48
2022-08-17T07:49:22.098Z,67.42
2022-08-17T07:50:28.023Z,66.82
2022-08-17T07:51:37.943Z,66.63
2022-08-17T07:52:51.366Z,65.53
2022-08-17T07:54:13.134Z,66.81
2022-08-17T07:55:29.394Z,67.59
2022-08-17T07:56:34.650Z,67.48
2022-08-17T07:57:37.197Z,69.15
2022-08-17T07:58:39.513Z,68.48
2022-08-17T08:00:03.230Z,69.42
2022-08-17T08:01:15.542Z,68.86
2022-08-17T08:02:34.199Z,69.79
2022-08-17T08:03:44.804Z,67.00
2022-08-17T08:05:06.749Z,67.27
2022-08-17T08:06:20.941Z,68.16
2022-08-17T08:07:26.787Z,67.94
2022-08-17T08:08:29.118Z,68.40
2022-08-17T08:09:34.249Z,70.46
2022-08-17T08:10:42.852Z,72.31
2022-08-17T08:11:48.417Z,72.75
2022-08-17T08:13:05.709Z,71.84
2022-08-17T08:14:42.092Z,70.52
2022-08-17T08:15:54.623Z,71.12
2022-08-17T08:17:03.332Z,69.39
2022-08-17T08:18:53.773Z,69.63
2022-08-17T08:19:45.753Z,72.52
2022-08-17T08:20:59.097Z,73.44
2022-08-17T08:22:34.919Z,73.06
2022-08-17T08:23:37.248Z,73.24
2022-08-17T08:24:51.428Z,71.84
2022-08-17T08:26:30.984Z,71.67
2022-08-17T08:28:10.812Z,72.46
2022-08-17T08:29:49.802Z,75.23
2022-08-17T08:31:03.442Z,75.20
2022-08-17T08:32:15.453Z,75.18
2022-08-17T08:33:34.571Z,73.85
2022-08-17T08:35:13.067Z,71.75
2022-08-17T08:37:12.748Z,71.69
2022-08-17T08:38:53.558Z,72.14
2022-08-17T08:40:13.350Z,71.02
2022-08-17T08:42:07.556Z,70.59
2022-08-17T08:43:37.396Z,68.49
2022-08-17T08:45:04.700Z,67.04
2022-08-17T08:46:13.669Z,68.65
2022-08-17T08:47:37.476Z,68.63
2022-08-17T08:48:59.617Z,66.10
2022-08-17T08:50:37.291Z,65.73
2022-08-17T08:51:56.904Z,65.01
2022-08-17T08:53:11.525Z,64.14
2022-08-17T08:54:13.761Z,65.72
2022-08-17T08:55:27.400Z,65.81
2022-08-17T08:57:23.327Z,67.69
2022-08-17T08:58:31.498Z,68.70
2022-08-17T09:00:19.245Z,67.41
2022-08-17T09:01:28.559Z,68.12
2022-08-17T09:02:45.814Z,65.70
2022-08-17T09:04:10.891Z,65.46
2022-08-17T09:05:36.885Z,63.84
2022-08-17T09:06:48.875Z,63.76
2022-08-17T09:08:16.374Z,61.72
2022-08-17T09:09:50.762Z,57.52
2022-08-17T09:10:59.863Z,58.12
2022-08-17T09:12:13.760Z,57.29
2022-08-17T09:13:22.667Z,57.96
2022-08-17T09:15:08.310Z,57.56
2022-08-17T09:16:23.080Z,58.12
2022-08-17T09:17:38.242Z,55.38
2022-08-17T09:19:03.191Z,56.04
2022-08-17T09:20:28.026Z,54.51
2022-08-17T09:21:47.930Z,52.09
2022-08-17T09:23:08.225Z,52.24
2022-08-17T09:24:20.713Z,55.60
2022-08-17T09:25:31.463Z,54.55
2022-08-17T09:26:40.004Z,53.87
2022-08-17T09:28:00.651Z,52.05
2022-08-17T09:29:08.627Z,50.67
2022-08-17T09:30:11.914Z,50.91
2022-08-17T09:31:49.708Z,49.55
2022-08-17T09:33:01.879Z,45.86
2022-08-17T09:34:16.562Z,44.60
2022-08-17T09:35:36.766Z,45.00
2022-08-17T09:36:45.187Z,44.70
2022-08-17T09:38:25.585Z,44.66
2022-08-17T09:39:54.316Z,41.75
2022-08-17T09:41:06.325Z,41.51
2022-08-17T09:42:37.280Z,43.59
2022-08-17T09:44:10.750Z,44.15
2022-08-17T09:45:42.787Z,44.16
2022-08-17T09:46:53.456Z,45.75
2022-08-17T09:48:14.331Z,45.13
2022-08-17T09:49:33.362Z,44.27
2022-08-17T09:51:03.441Z,44.90
2022-08-17T09:52:20.477Z,46.41
2022-08-17T09:53:22.761Z,45.10
2022-08-17T09:54:39.044Z,46.03
2022-08-17T09:56:00.175Z,45.92
2022-08-17T09:57:31.978Z,45.73
2022-08-17T09:58:47.633Z,46.10
2022-08-17T10:00:11.717Z,46.25
2022-08-17T10:01:41.424Z,44.18
2022-08-17T10:03:21.017Z,44.35
2022-08-17T10:04:29.552Z,45.11
2022-08-17T10:05:48.035Z,46.13
2022-08-17T10:07:24.992Z,46.36
2022-08-17T10:08:58.401Z,46.34
2022-08-17T10:10:16.666Z,47.03
2022-08-17T10:11:52.080Z,45.74
2022-08-17T10:15:08.123Z,42.73
2022-08-17T10:16:25.362Z,40.40
2022-08-17T10:17:50.606Z,39.12
2022-08-17T10:19:10.761Z,39.68
2022-08-17T10:20:20.381Z,39.59
2022-08-17T10:21:42.334Z,39.29
2022-08-17T10:23:15.468Z,38.26
2022-08-17T10:25:21.290Z,38.41
2022-08-17T10:26:20.964Z,35.42
2022-08-17T10:27:29.309Z,35.61
2022-08-17T10:28:39.507Z,35.42
2022-08-17T10:29:59.196Z,34.12
2022-08-17T10:31:33.292Z,33.84
2022-08-17T10:32:49.454Z,34.68
2022-08-17T10:34:18.928Z,34.27
2022-08-17T10:35:45.700Z,34.50
2022-08-17T10:37:09.833Z,34.10
2022-08-17T10:38:37.627Z,33.75
2022-08-17T10:39:54.693Z,34.57
2022-08-17T10:41:15.289Z,35.67
2022-08-17T10:42:30.311Z,36.66
2022-08-17T10:44:38.043Z,36.58
2022-08-17T10:45:28.167Z,36.94
2022-08-17T10:46:52.329Z,35.81
2022-08-17T10:48:07.323Z,35.59
2022-08-17T10:49:18.301Z,35.51
2022-08-17T10:50:57.778Z,35.95
2022-08-17T10:52:21.962Z,35.74
2022-08-17T10:53:48.485Z,35.60
2022-08-17T10:54:50.596Z,37.56
2022-08-17T10:56:11.967Z,39.23
2022-08-17T10:57:34.584Z,39.33
2022-08-17T10:58:57.305Z,40.96
2022-08-17T11:00:06.919Z,41.80
2022-08-17T11:01:12.491Z,42.40
2022-08-17T11:02:26.167Z,42.33
2022-08-17T11:03:28.562Z,42.47
2022-08-17T11:04:49.956Z,43.08
2022-08-17T11:06:04.035Z,43.58
2022-08-17T11:07:25.767Z,41.59
2022-08-17T11:08:49.368Z,42.44
2022-08-17T11:10:16.262Z,42.28
2022-08-17T11:11:36.599Z,42.65
2022-08-17T11:13:01.327Z,42.35
2022-08-17T11:14:32.450Z,41.70
2022-08-17T11:16:28.513Z,40.62
2022-08-17T11:17:51.282Z,41.04
2022-08-17T11:19:08.590Z,41.04
2022-08-17T11:20:52.640Z,40.04
2022-08-17T11:22:22.500Z,38.36
2022-08-17T11:23:39.906Z,38.03
2022-08-17T11:24:53.215Z,38.67
2022-08-17T11:25:57.641Z,39.42
2022-08-17T11:27:22.368Z,38.51
2022-08-17T11:28:35.840Z,37.94
2022-08-17T11:30:10.945Z,36.49
2022-08-17T11:31:39.292Z,36.55
2022-08-17T11:32:54.525Z,37.59
2022-08-17T11:34:02.275Z,36.75
2022-08-17T11:35:07.471Z,36.88
2022-08-17T11:36:22.483Z,37.12
2022-08-17T11:37:29.619Z,36.65
2022-08-17T11:38:49.269Z,37.62
2022-08-17T11:40:18.005Z,36.80
2022-08-17T11:41:48.862Z,37.32
2022-08-17T11:43:08.804Z,36.70
2022-08-17T11:44:39.811Z,36.67
2022-08-17T11:46:06.870Z,35.26
2022-08-17T11:48:02.486Z,35.93
2022-08-17T11:50:03.962Z,35.53
2022-08-17T11:51:27.370Z,36.00
2022-08-17T11:52:47.053Z,36.05
2022-08-17T11:53:50.022Z,36.53
2022-08-17T11:54:52.330Z,34.54
2022-08-17T11:55:57.293Z,34.50
2022-08-17T11:57:21.476Z,35.64
2022-08-17T11:58:29.683Z,36.64
2022-08-17T11:59:35.891Z,36.88
2022-08-17T12:00:59.671Z,35.69
2022-08-17T12:02:04.466Z,36.28
2022-08-17T12:03:26.384Z,36.60
2022-08-17T12:04:30.385Z,36.68
2022-08-17T12:05:34.130Z,37.75
2022-08-17T12:06:50.429Z,38.52
2022-08-17T12:08:18.506Z,39.05
2022-08-17T12:09:25.079Z,39.69
2022-08-17T12:10:34.284Z,39.75
2022-08-17T12:12:13.242Z,37.44
2022-08-17T12:13:17.560Z,38.52
2022-08-17T12:14:45.011Z,37.22
2022-08-17T12:15:52.769Z,37.14
2022-08-17T12:17:04.435Z,37.55
2022-08-17T12:18:06.728Z,37.65
2022-08-17T12:19:19.321Z,37.47
2022-08-17T12:20:27.780Z,37.33
2022-08-17T12:21:33.026Z,37.09
2022-08-17T12:22:54.756Z,36.19
2022-08-17T12:24:13.253Z,35.20
2022-08-17T12:25:25.882Z,33.45
2022-08-17T12:26:33.933Z,33.01
2022-08-17T12:28:01.339Z,33.24
2022-08-17T12:29:06.903Z,33.62
2022-08-17T12:30:15.729Z,33.29
2022-08-17T12:31:27.189Z,33.14
2022-08-17T12:32:34.110Z,33.12
2022-08-17T12:33:37.301Z,33.99
2022-08-17T12:34:42.903Z,34.01
2022-08-17T12:35:46.411Z,34.66
2022-08-17T12:36:51.045Z,34.70
2022-08-17T12:37:53.406Z,35.44
2022-08-17T12:39:13.878Z,35.94
2022-08-17T12:40:22.594Z,35.37
2022-08-17T12:41:38.430Z,35.63
2022-08-17T12:42:52.971Z,36.86
2022-08-17T12:44:03.479Z,37.01
2022-08-17T12:45:08.413Z,37.08
2022-08-17T12:46:17.078Z,37.38
2022-08-17T12:47:23.014Z,37.93
2022-08-17T12:48:28.087Z,38.55
2022-08-17T12:49:36.895Z,38.82
2022-08-17T12:50:43.655Z,37.82
2022-08-17T12:51:47.731Z,37.46
2022-08-17T12:52:50.950Z,38.36
2022-08-17T12:53:57.871Z,37.14
2022-08-17T12:55:21.175Z,37.64
2022-08-17T12:56:23.561Z,39.86
2022-08-17T12:57:43.598Z,39.98
2022-08-17T12:58:53.428Z,41.30
2022-08-17T13:00:01.106Z,41.18
2022-08-17T13:01:09.146Z,42.16
2022-08-17T13:02:22.245Z,40.91
2022-08-17T13:03:36.383Z,40.64
2022-08-17T13:04:40.134Z,41.18
2022-08-17T13:05:52.823Z,40.97
2022-08-17T13:06:59.661Z,41.64
2022-08-17T13:08:14.786Z,40.08
2022-08-17T13:09:35.783Z,39.86
2022-08-17T13:10:43.859Z,42.11
2022-08-17T13:11:50.369Z,42.40
2022-08-17T13:12:53.809Z,41.38
2022-08-17T13:14:08.007Z,41.69
2022-08-17T13:15:44.532Z,41.35
2022-08-17T13:16:53.359Z,42.76
2022-08-17T13:18:09.008Z,42.40
2022-08-17T13:19:39.722Z,42.22
2022-08-17T13:20:53.279Z,42.33
2022-08-17T13:21:58.903Z,42.72
2022-08-17T13:23:07.529Z,41.73
2022-08-17T13:24:27.473Z,43.07
2022-08-17T13:25:30.912Z,42.95
2022-08-17T13:26:37.619Z,42.99
2022-08-17T13:27:42.998Z,43.41
2022-08-17T13:28:51.706Z,43.28
2022-08-17T13:29:58.165Z,43.87
2022-08-17T13:31:28.125Z,42.49
2022-08-17T13:32:42.972Z,43.00
2022-08-17T13:33:46.672Z,43.09
2022-08-17T13:35:14.911Z,43.45
2022-08-17T13:36:30.240Z,44.11
2022-08-17T13:37:35.689Z,45.39
2022-08-17T13:38:49.553Z,47.13
2022-08-17T13:40:10.134Z,48.24
2022-08-17T13:41:34.522Z,49.13
2022-08-17T13:42:51.459Z,50.72
2022-08-17T13:43:54.725Z,50.45
2022-08-17T13:44:57.476Z,50.12
2022-08-17T13:46:10.320Z,48.94
2022-08-17T13:47:20.377Z,49.26
2022-08-17T13:48:33.957Z,48.36
2022-08-17T13:49:41.941Z,50.21
2022-08-17T13:50:57.298Z,51.15
2022-08-17T13:51:59.573Z,51.37
2022-08-17T13:53:26.652Z,52.94
2022-08-17T13:54:34.423Z,54.80
2022-08-17T13:55:36.693Z,55.82
2022-08-17T13:56:49.515Z,54.70
2022-08-17T13:58:05.086Z,57.40
2022-08-17T13:59:15.148Z,58.36
2022-08-17T14:00:30.861Z,60.04
2022-08-17T14:01:53.537Z,60.62
2022-08-17T14:03:00.958Z,60.53
2022-08-17T14:04:10.373Z,59.99
2022-08-17T14:05:12.561Z,60.64
2022-08-17T14:06:15.118Z,60.41
2022-08-17T14:07:39.663Z,61.20
2022-08-17T14:08:41.853Z,60.91
2022-08-17T14:09:49.396Z,62.97
2022-08-17T14:10:58.253Z,63.57
2022-08-17T14:12:02.131Z,63.77
2022-08-17T14:13:05.259Z,63.68
2022-08-17T14:14:07.558Z,64.35
2022-08-17T14:15:13.247Z,63.90
2022-08-17T14:16:15.680Z,63.09
2022-08-17T14:17:18.734Z,64.37
2022-08-17T14:18:55.443Z,64.17
2022-08-17T14:19:43.563Z,63.89
2022-08-17T14:20:46.620Z,64.10
2022-08-17T14:21:49.810Z,64.36
2022-08-17T14:22:55.617Z,65.16
2022-08-17T14:23:58.054Z,65.59
2022-08-17T14:25:01.974Z,65.15
2022-08-17T14:26:04.396Z,63.32
2022-08-17T14:27:09.131Z,63.69
2022-08-17T14:28:11.322Z,62.61
2022-08-17T14:29:15.597Z,62.61
2022-08-17T14:30:19.839Z,62.92
2022-08-17T14:31:22.581Z,64.51
2022-08-17T14:32:29.745Z,64.25
2022-08-17T14:33:33.273Z,65.69
2022-08-17T14:34:35.502Z,64.07
2022-08-17T14:35:37.699Z,65.51
2022-08-17T14:36:41.883Z,65.05
2022-08-17T14:37:51.995Z,64.44
2022-08-17T14:38:54.414Z,64.27
2022-08-17T14:40:02.137Z,63.49
2022-08-17T14:41:04.972Z,63.31
2022-08-17T14:42:07.332Z,62.00
2022-08-17T14:43:09.493Z,61.98
2022-08-17T14:44:12.745Z,60.38
2022-08-17T14:45:30.367Z,60.21
2022-08-17T14:46:35.238Z,58.28
2022-08-17T14:47:39.985Z,57.84
2022-08-17T14:48:42.291Z,58.32
2022-08-17T14:49:47.817Z,57.23
2022-08-17T14:50:50.018Z,58.16
2022-08-17T14:51:52.219Z,58.66
2022-08-17T14:52:58.141Z,59.35
2022-08-17T14:54:01.607Z,60.11
2022-08-17T14:55:05.299Z,59.14
2022-08-17T14:56:07.883Z,59.01
2022-08-17T14:57:22.993Z,59.65
2022-08-17T14:58:32.354Z,58.88
2022-08-17T14:59:35.520Z,58.79
2022-08-17T15:00:38.913Z,59.67
2022-08-17T15:01:41.187Z,63.94
2022-08-17T15:02:55.788Z,78.35
2022-08-17T15:03:58.028Z,100.00
2022-08-17T15:05:02.226Z,100.00
2022-08-17T15:06:05.077Z,100.00
2022-08-17T15:07:08.146Z,100.00
2022-08-17T15:08:10.374Z,100.00
2022-08-17T15:09:12.626Z,100.00
2022-08-17T15:10:16.093Z,100.00
2022-08-17T15:11:18.330Z,100.00
2022-08-17T15:12:26.430Z,100.00
2022-08-17T15:13:34.120Z,100.00